Time;durP1;ratioP1;P1;durP2;ratioP2;P2;SDS_P1;SDS_P2;PMS_P1;PMS_P2;Temp;Humidity;BMP_temperature;BMP_pressure;BME280_temperature;BME280_humidity;BME280_pressure;Samples;Min_cycle;Max_cycle;Signal;HPM_P1;HPM_P2
2022/07/13 00:02:17;;;;;;;2.80;2.60;;;21.90;99.90;;;;;;5095189;28;20028;-72
2022/07/13 00:04:43;;;;;;;2.85;2.17;;;21.80;99.90;;;;;;5095811;28;20020;-71
2022/07/13 00:07:09;;;;;;;3.13;2.13;;;21.70;99.90;;;;;;5094829;28;20066;-70
2022/07/13 00:09:34;;;;;;;3.92;2.05;;;21.70;99.90;;;;;;5094392;28;20024;-71
2022/07/13 00:12:00;;;;;;;1.75;1.65;;;21.70;99.90;;;;;;5083628;28;20077;-70
2022/07/13 00:14:26;;;;;;;2.72;1.75;;;21.70;99.90;;;;;;5078419;28;20029;-69
2022/07/13 00:16:51;;;;;;;6.05;2.60;;;21.80;99.90;;;;;;5073433;28;20459;-71
2022/07/13 00:19:17;;;;;;;3.08;2.33;;;21.70;99.90;;;;;;5073588;28;20241;-72
2022/07/13 00:21:43;;;;;;;5.28;2.97;;;21.80;99.90;;;;;;5075123;28;20028;-70
2022/07/13 00:24:09;;;;;;;5.30;2.38;;;21.70;99.90;;;;;;5076751;28;20016;-72
2022/07/13 00:26:34;;;;;;;2.15;1.88;;;21.80;99.90;;;;;;5075757;28;20017;-70
2022/07/13 00:29:00;;;;;;;2.65;1.90;;;21.70;99.90;;;;;;5073605;28;20027;-71
2022/07/13 00:31:26;;;;;;;2.97;1.60;;;21.70;99.90;;;;;;5073278;28;20469;-71
2022/07/13 00:33:52;;;;;;;2.38;2.10;;;21.70;99.90;;;;;;5073140;28;20035;-71
2022/07/13 00:36:17;;;;;;;2.45;1.77;;;21.70;99.90;;;;;;5073518;28;20115;-71
2022/07/13 00:38:43;;;;;;;2.75;1.65;;;21.80;99.90;;;;;;5074737;28;20397;-73
2022/07/13 00:41:09;;;;;;;2.13;1.52;;;21.80;99.90;;;;;;5075987;28;20020;-71
2022/07/13 00:43:35;;;;;;;3.53;1.85;;;21.70;99.90;;;;;;5091642;28;20020;-71
2022/07/13 00:46:01;;;;;;;4.57;1.65;;;21.70;99.90;;;;;;5076051;28;20377;-69
2022/07/13 00:48:27;;;;;;;7.32;2.42;;;21.70;99.90;;;;;;5076352;28;20032;-71
2022/07/13 00:50:54;;;;;;;4.47;1.60;;;21.70;99.90;;;;;;5076272;28;20032;-70
2022/07/13 00:53:20;;;;;;;2.58;2.03;;;21.80;99.90;;;;;;5077874;28;20020;-74
2022/07/13 00:55:47;;;;;;;3.30;1.63;;;21.70;99.90;;;;;;5078379;28;20086;-71
2022/07/13 00:58:13;;;;;;;1.52;1.42;;;21.70;99.90;;;;;;5080102;28;20028;-71
2022/07/13 01:00:39;;;;;;;2.70;2.08;;;21.80;99.90;;;;;;5079704;28;20021;-69
2022/07/13 01:03:04;;;;;;;3.88;1.42;;;21.70;99.90;;;;;;5078662;28;20024;-71
2022/07/13 01:05:30;;;;;;;2.38;1.80;;;21.80;99.90;;;;;;5079019;28;20367;-72
2022/07/13 01:07:56;;;;;;;1.00;1.00;;;21.80;99.90;;;;;;5079326;28;20032;-71
2022/07/13 01:10:23;;;;;;;1.73;1.20;;;21.70;99.90;;;;;;5073128;28;20028;-70
2022/07/13 01:12:49;;;;;;;1.33;1.23;;;21.70;99.90;;;;;;5089891;28;20470;-72
2022/07/13 01:15:15;;;;;;;1.88;1.63;;;21.70;99.90;;;;;;5091194;28;20581;-71
2022/07/13 01:17:42;;;;;;;1.60;1.50;;;21.70;99.90;;;;;;5092476;28;20047;-72
2022/07/13 01:20:09;;;;;;;1.55;1.42;;;21.70;99.90;;;;;;5091977;28;20035;-70
2022/07/13 01:22:45;;;;;;;3.55;1.20;;;21.70;99.90;;;;;;5090835;28;20027;-70
2022/07/13 01:25:14;;;;;;;1.42;1.33;;;21.70;99.90;;;;;;5092223;28;20027;-70
2022/07/13 01:27:42;;;;;;;2.95;1.17;;;21.70;99.90;;;;;;5090811;28;20025;-70
2022/07/13 01:30:08;;;;;;;1.98;1.52;;;21.80;99.90;;;;;;5090418;28;20039;-71
2022/07/13 01:32:50;;;;;;;2.28;1.15;;;21.80;99.90;;;;;;5092058;28;20541;-70
2022/07/13 01:35:18;;;;;;;1.23;1.15;;;21.80;99.90;;;;;;5092001;28;20491;-70
2022/07/13 01:37:44;;;;;;;1.35;1.20;;;21.80;99.90;;;;;;5091913;28;20105;-71
2022/07/13 01:40:12;;;;;;;1.88;1.25;;;21.80;99.90;;;;;;5091886;28;20036;-70
2022/07/13 01:42:46;;;;;;;2.40;1.75;;;21.80;99.90;;;;;;5090067;28;20028;-70
2022/07/13 01:45:14;;;;;;;1.33;1.25;;;21.80;99.90;;;;;;5090512;28;20054;-70
2022/07/13 01:47:43;;;;;;;5.97;1.67;;;21.90;99.90;;;;;;5090548;28;20028;-71
2022/07/13 01:50:10;;;;;;;1.40;1.05;;;21.80;99.90;;;;;;5091430;28;20052;-71
2022/07/13 01:52:37;;;;;;;2.42;1.00;;;21.80;99.90;;;;;;5090554;28;20020;-70
2022/07/13 01:55:04;;;;;;;2.10;1.60;;;21.80;99.90;;;;;;5091778;28;20031;-70
2022/07/13 01:57:30;;;;;;;2.83;1.50;;;21.90;99.90;;;;;;5089612;28;20077;-71
2022/07/13 02:00:01;;;;;;;1.88;1.13;;;21.80;99.90;;;;;;5091324;28;20025;-71
2022/07/13 02:02:26;;;;;;;1.15;1.13;;;21.80;99.90;;;;;;5090243;28;20020;-71
2022/07/13 02:04:54;;;;;;;3.55;1.20;;;21.70;99.90;;;;;;5091656;28;20359;-71
2022/07/13 02:07:21;;;;;;;4.50;1.30;;;21.70;99.90;;;;;;5091868;28;20575;-71
2022/07/13 02:09:47;;;;;;;10.02;1.67;;;21.70;99.90;;;;;;5089632;28;20099;-70
2022/07/13 02:12:13;;;;;;;1.40;1.30;;;21.70;99.90;;;;;;5088264;28;20024;-70
2022/07/13 02:14:39;;;;;;;1.63;1.45;;;21.70;99.90;;;;;;5069467;28;20023;-70
2022/07/13 02:17:05;;;;;;;3.65;1.60;;;21.70;99.90;;;;;;5070751;28;20028;-70
2022/07/13 02:19:30;;;;;;;2.05;1.60;;;21.60;99.90;;;;;;5070437;28;20027;-72
2022/07/13 02:21:56;;;;;;;2.47;1.40;;;21.50;99.90;;;;;;5070832;28;20316;-71
2022/07/13 02:24:22;;;;;;;1.77;1.67;;;21.60;99.90;;;;;;5070860;28;20033;-69
2022/07/13 02:26:47;;;;;;;4.82;1.30;;;21.60;99.90;;;;;;5071026;28;20035;-69
2022/07/13 02:29:13;;;;;;;1.95;1.60;;;21.60;99.90;;;;;;5070429;28;20032;-69
2022/07/13 02:31:39;;;;;;;3.17;1.00;;;21.50;99.90;;;;;;5070757;28;20489;-72
2022/07/13 02:34:04;;;;;;;2.28;1.05;;;21.50;99.90;;;;;;5071624;28;20134;-70
2022/07/13 02:36:30;;;;;;;4.10;1.30;;;21.50;99.90;;;;;;5071901;28;20161;-70
2022/07/13 02:38:56;;;;;;;5.68;1.38;;;21.50;99.90;;;;;;5075289;28;20025;-73
2022/07/13 02:41:22;;;;;;;0.90;0.90;;;21.50;99.90;;;;;;5086724;28;20023;-71
2022/07/13 02:43:48;;;;;;;2.50;1.23;;;21.60;99.90;;;;;;5097254;28;20024;-71
2022/07/13 02:46:14;;;;;;;1.50;1.40;;;21.50;99.90;;;;;;5089982;28;20021;-72
2022/07/13 02:48:40;;;;;;;1.60;1.15;;;21.60;99.90;;;;;;5090843;28;20032;-72
2022/07/13 02:51:05;;;;;;;1.70;1.23;;;21.50;99.90;;;;;;5090697;28;20395;-71
2022/07/13 02:53:31;;;;;;;3.38;1.60;;;21.60;99.90;;;;;;5090867;28;20407;-70
2022/07/13 02:55:58;;;;;;;4.93;1.23;;;21.50;99.90;;;;;;5090677;28;20031;-70
2022/07/13 02:58:24;;;;;;;1.63;1.23;;;21.50;99.90;;;;;;5089430;28;20096;-71
2022/07/13 03:00:50;;;;;;;1.50;1.38;;;21.40;99.90;;;;;;5090389;28;20511;-71
2022/07/13 03:03:16;;;;;;;1.50;1.25;;;21.40;99.90;;;;;;5090715;28;20028;-71
2022/07/13 03:05:42;;;;;;;3.28;1.10;;;21.40;99.90;;;;;;5089262;28;20111;-70
2022/07/13 03:08:07;;;;;;;1.38;1.30;;;21.40;99.90;;;;;;5090036;28;20028;-70
2022/07/13 03:10:33;;;;;;;2.33;1.45;;;21.40;99.90;;;;;;5090114;28;20095;-71
2022/07/13 03:12:59;;;;;;;2.33;1.13;;;21.30;99.90;;;;;;5087689;28;20451;-72
2022/07/13 03:15:25;;;;;;;4.30;1.85;;;21.30;99.90;;;;;;5090579;28;20024;-70
2022/07/13 03:17:50;;;;;;;1.90;1.63;;;21.30;99.90;;;;;;5088895;28;20028;-70
2022/07/13 03:20:16;;;;;;;4.90;1.58;;;21.30;99.90;;;;;;5082101;28;20501;-71
2022/07/13 03:22:42;;;;;;;1.77;1.20;;;21.30;99.90;;;;;;5068863;28;20097;-71
2022/07/13 03:25:08;;;;;;;4.20;1.48;;;21.30;99.90;;;;;;5070134;28;20085;-70
2022/07/13 03:27:34;;;;;;;1.65;1.55;;;21.30;99.90;;;;;;5068712;28;20060;-71
2022/07/13 03:30:00;;;;;;;2.90;1.45;;;21.30;99.90;;;;;;5068490;28;20044;-70
2022/07/13 03:32:26;;;;;;;2.40;1.90;;;21.30;99.90;;;;;;5070050;28;20020;-72
2022/07/13 03:34:52;;;;;;;2.60;1.52;;;21.20;99.90;;;;;;5069967;28;20166;-70
2022/07/13 03:37:18;;;;;;;2.33;1.50;;;21.20;99.90;;;;;;5070007;28;20028;-70
2022/07/13 03:39:43;;;;;;;3.38;1.70;;;21.30;99.90;;;;;;5069819;28;20099;-70
2022/07/13 03:42:09;;;;;;;1.70;1.60;;;21.30;99.90;;;;;;5070554;28;20557;-70
2022/07/13 03:44:35;;;;;;;1.42;1.33;;;21.30;99.90;;;;;;5070182;28;20391;-70
2022/07/13 03:47:00;;;;;;;1.55;1.45;;;21.30;99.90;;;;;;5070255;28;20383;-71
2022/07/13 03:49:26;;;;;;;1.20;1.20;;;21.30;99.90;;;;;;5069754;28;20044;-69
2022/07/13 03:51:52;;;;;;;1.67;1.50;;;21.20;99.90;;;;;;5069799;28;20041;-68
2022/07/13 03:54:18;;;;;;;1.23;1.10;;;21.20;99.90;;;;;;5070044;28;20038;-69
2022/07/13 03:56:43;;;;;;;1.20;1.10;;;21.20;99.90;;;;;;5068634;28;20021;-70
2022/07/13 03:59:09;;;;;;;1.77;1.10;;;21.30;99.90;;;;;;5069584;28;20032;-71
2022/07/13 04:01:35;;;;;;;1.63;1.52;;;21.30;99.90;;;;;;5069991;28;20021;-71
2022/07/13 04:04:03;;;;;;;4.47;1.90;;;21.40;99.90;;;;;;5070211;28;20029;-70
2022/07/13 04:06:29;;;;;;;1.42;1.10;;;21.30;99.90;;;;;;5069850;28;20369;-69
2022/07/13 04:08:55;;;;;;;1.25;1.15;;;21.40;99.90;;;;;;5069760;28;20028;-69
2022/07/13 04:11:21;;;;;;;2.60;1.40;;;21.40;99.90;;;;;;5069839;28;20025;-69
2022/07/13 04:13:47;;;;;;;1.50;1.40;;;21.40;99.90;;;;;;5075358;28;20039;-70
2022/07/13 04:16:12;;;;;;;3.40;1.83;;;21.40;99.90;;;;;;5071006;28;20073;-70
2022/07/13 04:18:38;;;;;;;1.63;1.52;;;21.40;99.90;;;;;;5070643;28;20028;-72
2022/07/13 04:21:04;;;;;;;1.75;1.50;;;21.40;99.90;;;;;;5074566;28;20402;-70
2022/07/13 04:23:30;;;;;;;2.50;1.60;;;21.40;99.90;;;;;;5075346;28;20386;-70
2022/07/13 04:25:57;;;;;;;3.72;1.60;;;21.30;99.90;;;;;;5075479;28;20474;-70
2022/07/13 04:28:23;;;;;;;1.33;1.23;;;21.30;99.90;;;;;;5073644;28;20063;-71
2022/07/13 04:30:50;;;;;;;5.45;1.75;;;21.30;99.90;;;;;;5071862;28;20055;-71
2022/07/13 04:33:16;;;;;;;2.65;1.45;;;21.30;99.90;;;;;;5071981;28;20486;-71
2022/07/13 04:35:41;;;;;;;4.53;1.27;;;21.30;99.90;;;;;;5073477;28;20086;-69
2022/07/13 04:38:07;;;;;;;1.13;1.02;;;21.30;99.90;;;;;;5071868;28;20071;-70
2022/07/13 04:40:33;;;;;;;1.05;0.98;;;21.30;99.90;;;;;;5072063;28;20038;-70
2022/07/13 04:42:59;;;;;;;1.73;1.48;;;21.30;99.90;;;;;;5072326;28;20026;-69
2022/07/13 04:45:24;;;;;;;7.75;3.42;;;21.40;99.90;;;;;;5081664;28;20040;-70
2022/07/13 04:47:50;;;;;;;4.00;1.92;;;21.40;99.90;;;;;;5073613;28;20024;-70
2022/07/13 04:50:16;;;;;;;1.42;1.15;;;21.40;99.90;;;;;;5072762;28;20021;-71
2022/07/13 04:52:42;;;;;;;1.60;1.50;;;21.50;99.90;;;;;;5071692;28;20398;-71
2022/07/13 04:55:09;;;;;;;2.88;1.73;;;21.50;99.90;;;;;;5072713;28;20028;-71
2022/07/13 04:57:36;;;;;;;1.63;1.52;;;21.60;99.90;;;;;;5073056;28;20158;-70
2022/07/13 05:00:06;;;;;;;3.78;1.90;;;21.70;99.90;;;;;;5072585;28;20398;-70
2022/07/13 05:02:32;;;;;;;2.47;1.63;;;21.60;99.90;;;;;;5073495;28;20024;-70
2022/07/13 05:04:58;;;;;;;1.65;1.35;;;21.60;99.90;;;;;;5072748;28;20020;-71
2022/07/13 05:07:24;;;;;;;1.60;1.48;;;21.60;99.90;;;;;;5073132;28;20033;-71
2022/07/13 05:09:49;;;;;;;4.72;1.95;;;21.70;99.90;;;;;;5072315;28;20027;-71
2022/07/13 05:12:15;;;;;;;4.55;1.90;;;21.80;99.90;;;;;;5075539;28;20029;-70
2022/07/13 05:14:41;;;;;;;3.75;2.00;;;21.80;99.90;;;;;;5089572;28;20025;-71
2022/07/13 05:17:06;;;;;;;1.60;1.50;;;21.90;99.90;;;;;;5075680;28;20024;-70
2022/07/13 05:19:33;;;;;;;1.85;1.75;;;22.00;99.90;;;;;;5080837;28;20039;-71
2022/07/13 05:21:59;;;;;;;4.82;2.28;;;22.10;99.90;;;;;;5081018;28;20048;-69
2022/07/13 05:24:25;;;;;;;2.40;2.13;;;22.20;99.90;;;;;;5089210;28;20059;-70
2022/07/13 05:26:50;;;;;;;2.53;1.77;;;22.40;99.90;;;;;;5091266;28;20103;-72
2022/07/13 05:29:16;;;;;;;4.95;1.95;;;22.50;99.90;;;;;;5072882;28;20040;-69
2022/07/13 05:31:42;;;;;;;1.35;1.13;;;22.60;99.90;;;;;;5069625;28;20051;-71
2022/07/13 05:34:08;;;;;;;1.40;1.30;;;22.70;99.90;;;;;;5072322;28;20052;-70
2022/07/13 05:36:34;;;;;;;3.53;1.42;;;22.70;99.90;;;;;;5070556;28;20081;-72
2022/07/13 05:39:00;;;;;;;2.78;1.50;;;22.80;99.90;;;;;;5071657;28;20484;-71
2022/07/13 05:41:27;;;;;;;1.27;1.17;;;22.90;99.90;;;;;;5071844;28;20051;-70
2022/07/13 05:43:52;;;;;;;4.18;3.08;;;22.90;99.90;;;;;;5071875;28;20021;-72
2022/07/13 05:46:18;;;;;;;3.42;1.92;;;23.00;99.90;;;;;;5071862;28;20032;-69
2022/07/13 05:48:44;;;;;;;3.45;2.25;;;23.10;99.90;;;;;;5071776;28;20028;-70
2022/07/13 05:51:10;;;;;;;2.75;1.70;;;23.20;99.90;;;;;;5071630;28;20028;-71
2022/07/13 05:53:36;;;;;;;9.40;2.17;;;23.20;99.90;;;;;;5070452;28;20111;-71
2022/07/13 05:56:02;;;;;;;3.03;1.45;;;23.40;99.90;;;;;;5070528;28;20364;-70
2022/07/13 05:58:27;;;;;;;2.40;1.52;;;23.50;99.90;;;;;;5071618;28;20040;-72
2022/07/13 06:00:53;;;;;;;4.13;1.23;;;23.50;99.90;;;;;;5070321;28;20060;-72
2022/07/13 06:03:19;;;;;;;3.08;1.30;;;23.50;99.90;;;;;;5072813;28;20073;-71
2022/07/13 06:05:45;;;;;;;2.40;1.30;;;23.60;99.90;;;;;;5072160;28;20021;-70
2022/07/13 06:08:11;;;;;;;2.15;1.50;;;23.70;99.90;;;;;;5070621;28;20028;-71
2022/07/13 06:10:37;;;;;;;3.03;1.33;;;23.80;99.90;;;;;;5071230;28;20024;-71
2022/07/13 06:13:02;;;;;;;4.35;1.55;;;23.90;99.90;;;;;;5070103;28;20033;-71
2022/07/13 06:15:28;;;;;;;2.17;1.27;;;24.00;99.90;;;;;;5071628;28;20485;-72
2022/07/13 06:17:54;;;;;;;3.85;1.90;;;24.00;99.90;;;;;;5071635;28;20040;-71
2022/07/13 06:20:20;;;;;;;2.40;1.77;;;24.00;99.90;;;;;;5069921;28;20028;-70
2022/07/13 06:23:09;;;;;;;1.58;1.45;;;24.10;99.90;;;;;;5072617;28;20035;-70
2022/07/13 06:25:31;;;;;;;3.10;2.63;;;24.20;99.90;;;;;;5072492;28;20462;-70
2022/07/13 06:27:57;;;;;;;3.40;1.92;;;24.30;99.90;;;;;;5077778;28;20031;-71
2022/07/13 06:30:22;;;;;;;4.38;2.17;;;24.20;99.90;;;;;;5072105;28;20017;-71
2022/07/13 06:32:48;;;;;;;3.88;2.17;;;24.20;99.90;;;;;;5071339;28;20028;-71
2022/07/13 06:35:14;;;;;;;3.63;2.20;;;24.20;99.90;;;;;;5071598;28;20037;-71
2022/07/13 06:37:40;;;;;;;3.55;1.77;;;24.30;99.90;;;;;;5070124;28;20051;-70
2022/07/13 06:40:06;;;;;;;2.70;2.40;;;24.50;99.90;;;;;;5073135;28;20382;-72
2022/07/13 06:42:31;;;;;;;9.48;3.20;;;24.60;99.90;;;;;;5075328;28;20091;-72
2022/07/13 06:44:57;;;;;;;5.78;2.50;;;24.60;99.90;;;;;;5076889;28;20048;-71
2022/07/13 06:47:23;;;;;;;3.58;2.30;;;24.60;99.90;;;;;;5072754;28;20042;-71
2022/07/13 06:49:49;;;;;;;4.15;2.50;;;24.70;99.90;;;;;;5072299;28;20021;-72
2022/07/13 06:52:14;;;;;;;5.75;2.85;;;24.80;99.90;;;;;;5072510;28;20063;-70
2022/07/13 06:54:40;;;;;;;5.63;2.10;;;24.90;99.90;;;;;;5071190;28;20071;-71
2022/07/13 06:57:06;;;;;;;6.25;1.70;;;25.00;99.90;;;;;;5072175;28;20028;-72
2022/07/13 06:59:32;;;;;;;4.95;3.33;;;25.10;99.90;;;;;;5073828;28;20024;-71
2022/07/13 07:01:58;;;;;;;4.18;1.80;;;25.20;99.90;;;;;;5072644;28;20035;-71
2022/07/13 07:04:23;;;;;;;6.13;1.83;;;25.20;99.90;;;;;;5071025;28;20035;-71
2022/07/13 07:06:49;;;;;;;27.10;3.97;;;25.20;99.90;;;;;;5072796;28;20035;-72
2022/07/13 07:09:15;;;;;;;10.25;3.05;;;25.30;99.90;;;;;;5073020;28;20020;-71
2022/07/13 07:11:40;;;;;;;10.05;3.25;;;25.10;99.90;;;;;;5075735;28;20502;-70
2022/07/13 07:14:06;;;;;;;4.43;2.60;;;25.00;99.90;;;;;;5075722;28;20107;-72
2022/07/13 07:16:32;;;;;;;8.85;2.50;;;24.90;99.90;;;;;;5089560;28;20026;-72
2022/07/13 07:18:58;;;;;;;7.95;2.38;;;24.70;99.90;;;;;;5081685;28;20402;-71
2022/07/13 07:21:23;;;;;;;13.35;3.05;;;24.70;99.90;;;;;;5074196;28;20048;-72
2022/07/13 07:23:49;;;;;;;5.80;1.52;;;24.50;99.90;;;;;;5073064;28;20079;-70
2022/07/13 07:26:15;;;;;;;2.33;1.63;;;24.60;99.90;;;;;;5071573;28;20021;-71
2022/07/13 07:28:41;;;;;;;7.95;2.00;;;24.70;99.90;;;;;;5073947;28;20019;-70
2022/07/13 07:31:06;;;;;;;6.57;2.45;;;24.90;99.90;;;;;;5080988;28;20024;-73
2022/07/13 07:33:32;;;;;;;7.63;3.03;;;24.90;99.90;;;;;;5069762;28;20024;-70
2022/07/13 07:35:58;;;;;;;1.70;1.60;;;25.00;99.90;;;;;;5071371;28;20097;-71
2022/07/13 07:38:23;;;;;;;2.30;1.27;;;25.00;99.90;;;;;;5071404;28;20082;-70
2022/07/13 07:40:49;;;;;;;2.22;1.13;;;25.10;99.90;;;;;;5077258;28;20071;-70
2022/07/13 07:43:15;;;;;;;9.40;1.88;;;25.20;99.90;;;;;;5078211;28;20021;-69
2022/07/13 07:45:41;;;;;;;4.45;1.73;;;25.30;99.90;;;;;;5078011;28;20111;-73
2022/07/13 07:48:07;;;;;;;3.67;1.27;;;25.30;99.90;;;;;;5075683;28;20047;-69
2022/07/13 07:50:32;;;;;;;3.75;1.20;;;25.40;99.90;;;;;;5069266;28;20078;-71
2022/07/13 07:52:58;;;;;;;6.47;1.98;;;25.30;99.90;;;;;;5071447;28;20024;-70
2022/07/13 07:55:24;;;;;;;2.45;1.30;;;25.20;99.90;;;;;;5072846;28;20056;-72
2022/07/13 07:57:51;;;;;;;1.90;0.90;;;25.20;99.90;;;;;;5082753;28;20024;-70
2022/07/13 08:00:18;;;;;;;4.05;1.27;;;25.00;99.90;;;;;;5094105;28;20035;-72
2022/07/13 08:02:45;;;;;;;2.80;1.33;;;25.00;99.90;;;;;;5091085;28;20436;-70
2022/07/13 08:05:11;;;;;;;4.35;1.92;;;24.90;99.90;;;;;;5079853;28;20031;-71
2022/07/13 08:07:44;;;;;;;4.00;1.50;;;25.00;99.90;;;;;;5074839;28;20158;-72
2022/07/13 08:10:12;;;;;;;3.95;2.25;;;25.00;99.90;;;;;;5074626;28;20076;-71
2022/07/13 08:12:38;;;;;;;1.52;1.40;;;25.00;99.90;;;;;;5073673;28;20028;-72
2022/07/13 08:15:07;;;;;;;5.38;1.73;;;25.00;99.90;;;;;;5073180;28;20028;-73
2022/07/13 08:17:35;;;;;;;1.88;1.08;;;25.00;99.90;;;;;;5072848;28;20475;-71
2022/07/13 08:20:01;;;;;;;2.47;1.70;;;25.00;99.90;;;;;;5073825;28;20039;-72
2022/07/13 08:22:27;;;;;;;4.97;1.60;;;25.00;99.90;;;;;;5073946;28;20080;-71
2022/07/13 08:24:52;;;;;;;5.30;1.80;;;24.90;99.90;;;;;;5075486;28;20380;-72
2022/07/13 08:27:18;;;;;;;5.18;1.38;;;24.90;99.90;;;;;;5074172;28;20027;-70
2022/07/13 08:29:46;;;;;;;2.63;1.08;;;24.90;99.90;;;;;;5076980;28;20024;-72
2022/07/13 08:32:12;;;;;;;1.10;1.00;;;24.80;99.90;;;;;;5083860;28;20094;-72
2022/07/13 08:40:08;;;;;;;1.40;1.30;;;25.00;99.90;;;;;;5073435;28;20043;-71
2022/07/13 08:42:35;;;;;;;3.38;1.67;;;25.10;99.90;;;;;;5071248;28;20499;-73
2022/07/13 08:45:02;;;;;;;1.85;1.33;;;25.10;99.90;;;;;;5092507;28;20054;-71
2022/07/13 08:47:30;;;;;;;2.50;1.38;;;25.20;99.90;;;;;;5073244;28;20056;-72
2022/07/13 08:50:03;;;;;;;2.67;1.85;;;25.30;99.90;;;;;;5072707;28;20024;-70
2022/07/13 08:52:30;;;;;;;3.15;1.88;;;25.30;99.90;;;;;;5071710;28;20028;-72
2022/07/13 08:54:58;;;;;;;2.25;1.88;;;25.30;99.90;;;;;;5072993;28;20086;-72
2022/07/13 08:57:24;;;;;;;2.80;1.40;;;25.40;99.90;;;;;;5079119;28;20024;-72
2022/07/13 08:59:51;;;;;;;1.52;1.35;;;25.30;99.90;;;;;;5086879;28;20466;-71
2022/07/13 09:02:17;;;;;;;2.92;1.27;;;25.40;99.90;;;;;;5078266;28;20622;-72
2022/07/13 09:04:44;;;;;;;5.88;1.38;;;25.40;99.90;;;;;;5081972;28;20027;-70
2022/07/13 09:07:13;;;;;;;1.38;1.20;;;25.50;99.90;;;;;;5082563;28;20100;-72
2022/07/13 09:09:39;;;;;;;2.70;1.10;;;25.60;99.90;;;;;;5085799;28;20054;-72
2022/07/13 09:12:19;;;;;;;2.67;1.08;;;25.50;99.90;;;;;;5083592;28;20494;-70
2022/07/13 09:14:52;;;;;;;1.25;1.02;;;25.40;99.90;;;;;;5086034;28;20027;-71
2022/07/13 09:17:34;;;;;;;2.63;0.95;;;25.40;99.90;;;;;;5089757;28;20020;-72
2022/07/13 09:20:14;;;;;;;3.50;1.35;;;25.40;99.90;;;;;;5087769;28;20062;-72
2022/07/13 09:22:57;;;;;;;6.35;1.15;;;25.40;99.90;;;;;;5087773;28;20021;-73
2022/07/13 09:25:34;;;;;;;3.17;1.33;;;25.50;99.90;;;;;;5085966;28;20020;-71
2022/07/13 09:28:18;;;;;;;2.25;1.23;;;25.60;99.90;;;;;;5072685;28;20517;-72
2022/07/13 09:30:45;;;;;;;1.45;1.17;;;25.60;99.90;;;;;;5079331;28;20198;-71
2022/07/13 09:33:11;;;;;;;1.38;0.98;;;25.70;99.90;;;;;;5084321;28;20032;-71
2022/07/13 09:35:42;;;;;;;5.50;1.13;;;25.90;99.90;;;;;;5081675;28;20076;-70
2022/07/13 09:38:09;;;;;;;6.28;1.70;;;25.90;99.90;;;;;;5080145;28;20487;-73
2022/07/13 09:40:35;;;;;;;2.40;1.75;;;26.00;99.90;;;;;;5086437;28;20478;-73
2022/07/13 09:46:10;;;;;;;4.50;1.60;;;25.90;99.90;;;;;;5060383;28;20055;-72
2022/07/13 09:48:37;;;;;;;5.53;1.55;;;26.10;99.90;;;;;;5082687;28;20028;-71
2022/07/13 09:51:03;;;;;;;2.45;1.73;;;26.10;99.90;;;;;;5078669;28;20020;-73
2022/07/13 09:53:33;;;;;;;3.25;1.70;;;25.90;99.90;;;;;;5077900;28;20422;-73
2022/07/13 09:56:02;;;;;;;6.32;1.73;;;25.90;99.90;;;;;;5081514;28;20027;-73
2022/07/13 09:58:35;;;;;;;7.45;1.05;;;25.90;99.90;;;;;;5082077;28;20039;-74
2022/07/13 10:01:04;;;;;;;1.55;1.15;;;26.00;99.90;;;;;;5085635;28;20012;-73
2022/07/13 10:03:30;;;;;;;2.00;1.30;;;26.00;99.90;;;;;;5070529;28;20023;-74
2022/07/13 10:05:58;;;;;;;2.05;1.63;;;26.00;99.90;;;;;;5071905;28;20016;-73
2022/07/13 10:08:24;;;;;;;2.25;1.63;;;26.00;99.90;;;;;;5077717;28;20028;-74
2022/07/13 10:10:52;;;;;;;2.08;1.48;;;26.00;99.90;;;;;;5081380;28;20028;-72
2022/07/13 10:13:18;;;;;;;3.83;1.77;;;26.00;99.90;;;;;;5086634;28;20470;-72
2022/07/13 10:15:45;;;;;;;3.17;1.50;;;26.20;99.90;;;;;;5072184;28;20470;-74
2022/07/13 10:18:35;;;;;;;1.08;1.08;;;26.10;99.90;;;;;;5075101;28;20498;-72
2022/07/13 10:21:33;;;;;;;1.83;1.58;;;26.00;99.90;;;;;;5086775;28;20042;-74
2022/07/13 10:23:59;;;;;;;1.45;1.35;;;26.00;99.90;;;;;;5081244;28;20045;-73
2022/07/13 10:26:26;;;;;;;1.30;1.20;;;26.10;99.90;;;;;;5085372;28;20040;-73
2022/07/13 10:29:05;;;;;;;2.85;1.05;;;26.10;99.90;;;;;;5083785;28;20022;-74
2022/07/13 10:31:33;;;;;;;1.98;0.98;;;26.00;99.90;;;;;;5083208;28;20556;-74
2022/07/13 10:34:01;;;;;;;2.30;1.27;;;26.00;99.90;;;;;;5078654;28;20107;-71
2022/07/13 10:36:52;;;;;;;2.33;1.83;;;26.00;99.90;;;;;;5083960;28;20385;-72
2022/07/13 10:39:19;;;;;;;2.13;1.25;;;26.10;99.90;;;;;;5085009;28;20078;-72
2022/07/13 10:41:58;;;;;;;2.88;1.58;;;26.00;99.90;;;;;;5080222;28;20074;-70
2022/07/13 10:44:31;;;;;;;1.20;1.10;;;26.10;99.90;;;;;;5072322;28;20039;-72
2022/07/13 10:47:00;;;;;;;1.85;1.00;;;26.00;99.90;;;;;;5084056;28;20479;-74
2022/07/13 10:49:44;;;;;;;1.48;1.38;;;26.20;99.90;;;;;;5084783;28;20043;-72
2022/07/13 10:52:22;;;;;;;5.20;1.73;;;26.10;99.90;;;;;;5071001;28;20020;-72
2022/07/13 10:55:13;;;;;;;4.82;1.67;;;26.00;99.90;;;;;;5086041;28;20478;-71
2022/07/13 10:57:43;;;;;;;3.63;2.42;;;25.90;99.90;;;;;;5085876;28;20029;-71
2022/07/13 11:00:19;;;;;;;1.88;1.77;;;25.90;99.90;;;;;;5081423;28;20024;-70
2022/07/13 11:02:49;;;;;;;2.03;1.40;;;26.10;99.90;;;;;;5090898;28;20091;-71
2022/07/13 11:05:20;;;;;;;3.58;1.83;;;26.20;99.90;;;;;;5090650;28;20031;-74
2022/07/13 11:07:51;;;;;;;3.07;1.97;;;26.30;99.90;;;;;;5088561;28;20024;-73
2022/07/13 11:10:37;;;;;;;3.67;1.73;;;26.50;99.90;;;;;;5081488;28;20279;-72
2022/07/13 11:13:04;;;;;;;2.20;1.67;;;26.80;99.90;;;;;;5083199;28;20066;-72
2022/07/13 11:15:45;;;;;;;4.78;2.20;;;27.00;99.90;;;;;;5089039;28;20020;-72
2022/07/13 11:18:36;;;;;;;2.42;2.00;;;27.10;99.90;;;;;;5081256;28;20598;-71
2022/07/13 11:21:18;;;;;;;1.83;1.70;;;27.10;99.90;;;;;;5076406;28;20395;-75
2022/07/13 11:26:46;;;;;;;3.85;1.85;;;27.20;99.90;;;;;;5070746;28;20052;-74
2022/07/13 11:29:44;;;;;;;3.60;2.17;;;27.00;99.90;;;;;;5082901;28;20127;-73
2022/07/13 11:32:13;;;;;;;3.20;1.90;;;26.80;99.90;;;;;;5083244;28;20024;-72
2022/07/13 11:34:42;;;;;;;1.65;1.55;;;26.70;99.90;;;;;;5086461;28;20027;-72
2022/07/13 11:37:09;;;;;;;3.40;1.48;;;26.70;99.90;;;;;;5091549;28;20035;-74
2022/07/13 11:39:36;;;;;;;1.70;1.40;;;26.60;99.90;;;;;;5089784;28;20513;-73
2022/07/13 11:42:05;;;;;;;4.90;2.10;;;26.60;99.90;;;;;;5088902;28;20032;-73
2022/07/13 11:44:32;;;;;;;5.50;1.95;;;26.70;99.90;;;;;;5091861;28;20625;-73
2022/07/13 11:47:06;;;;;;;4.00;1.48;;;26.70;99.90;;;;;;5101922;28;20025;-72
2022/07/13 11:49:45;;;;;;;1.60;1.50;;;26.80;99.90;;;;;;5094439;28;20047;-71
2022/07/13 11:52:28;;;;;;;4.22;1.10;;;26.90;99.90;;;;;;5081034;28;20039;-74
2022/07/13 11:54:58;;;;;;;4.30;1.55;;;26.90;99.90;;;;;;5088202;28;20016;-74
2022/07/13 11:57:24;;;;;;;4.10;1.10;;;26.90;99.90;;;;;;5089621;28;20110;-72
2022/07/13 11:59:49;;;;;;;2.60;0.98;;;27.00;99.90;;;;;;5084611;28;20494;-74
2022/07/13 12:02:15;;;;;;;1.63;1.08;;;27.10;99.90;;;;;;5091145;28;20039;-73
2022/07/13 12:04:41;;;;;;;1.25;1.10;;;27.00;99.90;;;;;;5083070;28;20024;-76
2022/07/13 12:07:12;;;;;;;4.10;1.77;;;26.90;99.90;;;;;;5084415;28;20118;-72
2022/07/13 12:09:59;;;;;;;4.68;1.13;;;27.10;99.90;;;;;;5084535;28;20051;-74
2022/07/13 12:12:36;;;;;;;1.90;0.90;;;27.30;99.90;;;;;;5081841;28;20067;-73
2022/07/13 12:15:05;;;;;;;0.80;0.80;;;27.50;99.90;;;;;;5090516;28;20315;-74
2022/07/13 12:17:49;;;;;;;3.20;1.10;;;27.60;99.90;;;;;;5079407;28;20063;-71
2022/07/13 12:20:18;;;;;;;2.88;0.88;;;27.40;99.90;;;;;;5101338;28;20627;-72
2022/07/13 12:22:51;;;;;;;8.40;1.40;;;27.40;99.90;;;;;;5075706;28;20028;-73
2022/07/13 12:25:28;;;;;;;4.75;1.58;;;27.40;99.90;;;;;;5085097;28;20021;-73
2022/07/13 12:27:55;;;;;;;3.20;1.25;;;27.50;99.90;;;;;;5075014;28;20025;-73
2022/07/13 12:30:21;;;;;;;3.63;1.70;;;27.40;99.90;;;;;;5081170;28;20028;-72
2022/07/13 12:33:07;;;;;;;5.05;1.20;;;27.40;99.90;;;;;;5077267;28;20096;-72
2022/07/13 12:35:35;;;;;;;6.97;1.15;;;27.50;99.90;;;;;;5077840;28;20478;-76
2022/07/13 12:38:03;;;;;;;2.22;1.05;;;27.60;99.90;;;;;;5088089;28;20111;-72
2022/07/13 12:40:54;;;;;;;1.25;0.98;;;27.20;99.90;;;;;;5092866;28;20027;-73
2022/07/13 12:43:38;;;;;;;17.52;1.63;;;27.10;99.90;;;;;;5090014;28;20036;-73
2022/07/13 12:46:04;;;;;;;6.55;1.50;;;27.20;99.90;;;;;;5081147;28;20024;-74
2022/07/13 12:48:34;;;;;;;1.30;0.95;;;27.20;99.90;;;;;;5092069;28;20153;-71
2022/07/13 12:51:02;;;;;;;5.00;1.10;;;27.10;99.90;;;;;;5075264;28;20021;-71
2022/07/13 12:53:53;;;;;;;3.13;1.30;;;27.00;99.90;;;;;;5077128;28;20020;-76
2022/07/13 12:56:27;;;;;;;7.03;1.07;;;27.00;99.90;;;;;;5084477;28;20112;-71
2022/07/13 12:58:55;;;;;;;5.30;1.27;;;27.00;99.90;;;;;;5092016;28;20028;-73
2022/07/13 13:01:31;;;;;;;10.43;1.30;;;26.90;99.90;;;;;;5092957;28;20021;-71
2022/07/13 13:03:58;;;;;;;1.80;1.45;;;26.70;99.90;;;;;;5090743;28;20025;-74